Time;durP1;ratioP1;P1;durP2;ratioP2;P2;SDS_P1;SDS_P2;PMS_P1;PMS_P2;Temp;Humidity;BMP_temperature;BMP_pressure;BME280_temperature;BME280_humidity;BME280_pressure;Samples;Min_cycle;Max_cycle;Signal;HPM_P1;HPM_P2
2023/07/17 00:01:14;;;;;;;8.98;4.68;;;18.20;99.90;;;;;;5019578;28;20018;-72
2023/07/17 00:03:40;;;;;;;10.82;4.32;;;18.20;99.90;;;;;;5019125;28;20022;-72
2023/07/17 00:06:05;;;;;;;13.82;4.38;;;18.10;99.90;;;;;;5020305;28;20033;-72
2023/07/17 00:08:31;;;;;;;7.88;4.50;;;18.10;99.90;;;;;;5019573;28;20085;-70
2023/07/17 00:10:58;;;;;;;10.32;3.80;;;18.10;99.90;;;;;;5019040;28;20048;-70
2023/07/17 00:13:24;;;;;;;9.00;3.75;;;18.10;99.90;;;;;;5019942;28;20041;-70
2023/07/17 00:15:49;;;;;;;7.95;3.63;;;18.10;99.90;;;;;;5019302;28;20053;-70
2023/07/17 00:18:15;;;;;;;7.45;4.30;;;18.00;99.90;;;;;;5019709;28;20049;-70
2023/07/17 00:20:40;;;;;;;12.20;4.63;;;17.90;99.90;;;;;;5018786;28;20033;-70
2023/07/17 00:23:06;;;;;;;7.55;4.03;;;17.90;99.90;;;;;;5019705;28;20076;-70
2023/07/17 00:25:32;;;;;;;10.43;4.72;;;17.90;99.90;;;;;;5019739;28;20052;-70
2023/07/17 00:27:58;;;;;;;8.10;3.70;;;17.90;99.90;;;;;;5019410;28;20036;-70
2023/07/17 00:30:23;;;;;;;8.52;4.18;;;17.90;99.90;;;;;;5018911;28;20037;-70
2023/07/17 00:32:49;;;;;;;10.27;4.82;;;17.80;99.90;;;;;;5018527;28;20123;-69
2023/07/17 00:35:15;;;;;;;9.05;4.43;;;17.60;99.90;;;;;;5019121;28;20022;-69
2023/07/17 00:37:41;;;;;;;7.82;4.75;;;17.50;99.90;;;;;;5019295;28;20033;-69
2023/07/17 00:40:08;;;;;;;9.30;4.60;;;17.40;99.90;;;;;;5018872;28;20025;-69
2023/07/17 00:42:34;;;;;;;7.80;4.00;;;17.40;99.90;;;;;;5018831;28;20022;-69
2023/07/17 00:45:00;;;;;;;9.68;4.85;;;17.40;99.90;;;;;;5018668;28;20044;-69
2023/07/17 00:47:26;;;;;;;8.57;4.38;;;17.50;99.90;;;;;;5019546;28;20036;-69
2023/07/17 00:49:52;;;;;;;11.05;4.25;;;17.50;99.90;;;;;;5018390;28;20029;-69
2023/07/17 00:52:18;;;;;;;8.90;4.47;;;17.50;99.90;;;;;;5018887;28;20120;-69
2023/07/17 00:54:44;;;;;;;9.48;4.65;;;17.60;99.90;;;;;;5018585;28;20053;-69
2023/07/17 00:57:12;;;;;;;10.63;4.25;;;17.50;99.90;;;;;;5018484;28;20033;-69
2023/07/17 00:59:38;;;;;;;8.05;3.70;;;17.40;99.90;;;;;;5018112;28;20045;-69
2023/07/17 01:02:04;;;;;;;9.30;4.22;;;17.40;99.90;;;;;;5018164;28;20030;-69
2023/07/17 01:04:30;;;;;;;8.70;4.43;;;17.30;99.90;;;;;;5018798;28;20022;-69
2023/07/17 01:06:55;;;;;;;7.05;4.25;;;17.40;99.90;;;;;;5018904;28;20018;-69
2023/07/17 01:09:21;;;;;;;9.93;4.90;;;17.40;99.90;;;;;;5018547;28;20026;-69
2023/07/17 01:11:47;;;;;;;7.00;4.00;;;17.40;99.90;;;;;;5018116;28;20049;-69
2023/07/17 01:14:19;;;;;;;7.88;4.45;;;17.40;99.90;;;;;;5018821;28;20022;-69
2023/07/17 01:16:47;;;;;;;8.15;4.55;;;17.20;99.90;;;;;;5017856;28;20030;-69
2023/07/17 01:19:13;;;;;;;5.65;4.18;;;17.00;99.90;;;;;;5017742;28;20022;-69
2023/07/17 01:21:51;;;;;;;11.00;4.40;;;17.00;99.90;;;;;;5018017;28;20038;-69
2023/07/17 01:24:17;;;;;;;8.25;4.28;;;17.00;99.90;;;;;;5017942;28;20026;-69
2023/07/17 01:26:43;;;;;;;8.40;4.25;;;17.00;99.90;;;;;;5018686;28;20030;-69
2023/07/17 01:29:08;;;;;;;8.57;4.10;;;17.00;99.90;;;;;;5017917;28;20172;-69
2023/07/17 01:31:35;;;;;;;7.55;4.20;;;16.90;99.90;;;;;;5018092;28;20022;-69
2023/07/17 01:34:00;;;;;;;8.82;4.30;;;16.80;99.90;;;;;;5017676;28;20026;-69
2023/07/17 01:36:26;;;;;;;9.18;4.63;;;16.80;99.90;;;;;;5017671;28;20029;-69
2023/07/17 01:38:52;;;;;;;8.13;4.60;;;16.80;99.90;;;;;;5018485;28;20088;-69
2023/07/17 01:41:17;;;;;;;6.80;4.20;;;16.80;99.90;;;;;;5017954;28;20029;-69
2023/07/17 01:43:43;;;;;;;10.90;4.50;;;16.80;99.90;;;;;;5018367;28;20046;-69
2023/07/17 01:46:09;;;;;;;9.68;4.07;;;16.70;99.90;;;;;;5017502;28;20065;-69
2023/07/17 01:48:34;;;;;;;8.25;4.60;;;16.80;99.90;;;;;;5017533;28;20073;-69
2023/07/17 01:51:00;;;;;;;7.35;4.25;;;16.80;99.90;;;;;;5017542;28;20018;-69
2023/07/17 01:53:25;;;;;;;9.63;4.45;;;16.80;99.90;;;;;;5017385;28;20072;-69
2023/07/17 01:55:51;;;;;;;8.77;4.50;;;16.80;99.90;;;;;;5017241;28;20140;-69
2023/07/17 01:58:17;;;;;;;7.60;4.30;;;16.80;99.90;;;;;;5017602;28;20178;-69
2023/07/17 02:00:42;;;;;;;7.07;4.65;;;16.70;99.90;;;;;;5017187;28;20026;-69
2023/07/17 02:03:08;;;;;;;6.45;4.32;;;16.60;99.90;;;;;;5017308;28;20028;-69
2023/07/17 02:05:33;;;;;;;9.15;4.80;;;16.70;99.90;;;;;;5018129;28;20168;-69
2023/07/17 02:07:59;;;;;;;9.35;4.75;;;16.70;99.90;;;;;;5017085;28;20044;-69
2023/07/17 02:10:24;;;;;;;7.30;4.45;;;16.70;99.90;;;;;;5017011;28;20041;-69
2023/07/17 02:12:50;;;;;;;8.73;4.57;;;16.70;99.90;;;;;;5017951;28;20049;-69
2023/07/17 02:15:16;;;;;;;8.88;4.53;;;16.70;99.90;;;;;;5016694;28;20022;-69
2023/07/17 02:17:41;;;;;;;9.88;5.10;;;16.60;99.90;;;;;;5017868;28;20037;-69
2023/07/17 02:20:11;;;;;;;8.13;4.53;;;16.50;99.90;;;;;;5016630;28;20064;-69
2023/07/17 02:22:37;;;;;;;12.30;4.60;;;16.50;99.90;;;;;;5017535;28;20022;-69
2023/07/17 02:25:07;;;;;;;11.00;4.20;;;16.40;99.90;;;;;;5017527;28;20037;-69
2023/07/17 02:27:33;;;;;;;8.02;4.03;;;16.40;99.90;;;;;;5017481;28;20035;-69
2023/07/17 02:29:59;;;;;;;11.32;4.22;;;16.40;99.90;;;;;;5016966;28;20034;-69
2023/07/17 02:32:29;;;;;;;7.38;4.50;;;16.30;99.90;;;;;;5017568;28;20025;-69
2023/07/17 02:34:54;;;;;;;9.02;4.38;;;16.30;99.90;;;;;;5017582;28;20053;-69
2023/07/17 02:37:20;;;;;;;9.10;4.47;;;16.30;99.90;;;;;;5017239;28;20022;-69
2023/07/17 02:39:45;;;;;;;9.15;4.63;;;16.30;99.90;;;;;;5017027;28;20037;-69
2023/07/17 02:42:11;;;;;;;9.48;4.85;;;16.20;99.90;;;;;;5016920;28;20053;-69
2023/07/17 02:44:36;;;;;;;12.27;4.28;;;16.20;99.90;;;;;;5017132;28;20022;-69
2023/07/17 02:47:02;;;;;;;8.98;4.82;;;16.20;99.90;;;;;;5016429;28;20111;-69
2023/07/17 02:49:28;;;;;;;6.72;4.10;;;16.30;99.90;;;;;;5016256;28;20120;-69
2023/07/17 02:51:53;;;;;;;10.13;4.45;;;16.20;99.90;;;;;;5016691;28;20076;-69
2023/07/17 02:54:21;;;;;;;12.75;5.13;;;16.20;99.90;;;;;;5016267;28;20076;-69
2023/07/17 02:56:48;;;;;;;8.77;4.60;;;16.20;99.90;;;;;;5016495;28;20058;-69
2023/07/17 02:59:13;;;;;;;9.30;4.60;;;16.10;99.90;;;;;;5016167;28;20025;-69
2023/07/17 03:01:39;;;;;;;8.75;4.28;;;16.10;99.90;;;;;;5016478;28;20022;-69
2023/07/17 03:04:04;;;;;;;7.55;4.50;;;16.00;99.90;;;;;;5016708;28;20018;-69
2023/07/17 03:06:30;;;;;;;7.22;4.00;;;16.00;99.90;;;;;;5016507;28;20030;-69
2023/07/17 03:08:55;;;;;;;9.80;4.53;;;16.00;99.90;;;;;;5016756;28;20116;-69
2023/07/17 03:11:21;;;;;;;7.13;4.55;;;15.90;99.90;;;;;;5016464;28;20033;-69
2023/07/17 03:13:46;;;;;;;7.85;4.80;;;15.90;99.90;;;;;;5016897;28;20018;-69
2023/07/17 03:16:12;;;;;;;10.27;5.05;;;15.90;99.90;;;;;;5016064;28;20026;-69
2023/07/17 03:18:37;;;;;;;13.02;4.82;;;16.00;99.90;;;;;;5016596;28;20077;-69
2023/07/17 03:21:03;;;;;;;11.10;4.57;;;15.90;99.90;;;;;;5019940;28;20038;-69
2023/07/17 03:23:29;;;;;;;14.50;5.65;;;15.90;99.90;;;;;;5020414;28;20022;-69
2023/07/17 03:25:56;;;;;;;9.07;5.07;;;15.90;99.90;;;;;;5019888;28;20032;-69
2023/07/17 03:28:22;;;;;;;9.57;4.68;;;16.00;99.90;;;;;;5020194;28;20025;-69
2023/07/17 03:30:47;;;;;;;8.30;4.18;;;16.00;99.90;;;;;;5020096;28;20088;-69
2023/07/17 03:33:13;;;;;;;9.23;4.78;;;15.80;99.90;;;;;;5020515;28;20084;-69
2023/07/17 03:35:39;;;;;;;8.13;3.80;;;15.60;99.90;;;;;;5020363;28;20061;-69
2023/07/17 03:38:04;;;;;;;8.65;4.70;;;15.50;99.90;;;;;;5019704;28;20117;-69
2023/07/17 03:40:30;;;;;;;11.27;5.45;;;15.50;99.90;;;;;;5019959;28;20029;-69
2023/07/17 03:42:55;;;;;;;9.48;4.43;;;15.50;99.90;;;;;;5019636;28;20018;-69
2023/07/17 03:45:21;;;;;;;12.05;5.18;;;15.50;99.90;;;;;;5019862;28;20022;-69
2023/07/17 03:47:49;;;;;;;8.95;4.50;;;15.50;99.90;;;;;;5019868;28;20026;-69
2023/07/17 03:50:15;;;;;;;12.75;4.88;;;15.50;99.90;;;;;;5019766;28;20025;-70
2023/07/17 03:52:40;;;;;;;8.90;4.85;;;15.60;99.90;;;;;;5019548;28;20033;-70
2023/07/17 03:55:06;;;;;;;10.48;5.38;;;15.70;99.90;;;;;;5019716;28;20032;-69
2023/07/17 03:57:32;;;;;;;11.18;4.75;;;15.70;99.90;;;;;;5019075;28;20029;-69
2023/07/17 03:59:57;;;;;;;9.57;5.05;;;15.70;99.90;;;;;;5019774;28;20061;-69
2023/07/17 04:02:23;;;;;;;8.73;4.75;;;15.50;99.90;;;;;;5019575;28;20018;-69
2023/07/17 04:04:50;;;;;;;11.13;4.57;;;15.50;99.90;;;;;;5019541;28;20025;-69
2023/07/17 04:07:16;;;;;;;11.23;5.10;;;15.50;99.90;;;;;;5019420;28;20030;-69
2023/07/17 04:09:41;;;;;;;10.75;5.13;;;15.50;99.90;;;;;;5019548;28;20029;-69
2023/07/17 04:12:07;;;;;;;11.13;5.18;;;15.50;99.90;;;;;;5019148;28;20050;-69
2023/07/17 04:14:33;;;;;;;11.82;5.07;;;15.40;99.90;;;;;;5020007;28;20057;-69
2023/07/17 04:16:59;;;;;;;14.77;5.18;;;15.40;99.90;;;;;;5018924;28;20053;-69
2023/07/17 04:19:26;;;;;;;11.93;4.68;;;15.50;99.90;;;;;;5041830;23;20121;-73
2023/07/17 04:21:52;;;;;;;14.55;5.35;;;15.40;99.90;;;;;;4999226;28;20023;-73
2023/07/17 04:24:17;;;;;;;8.55;4.70;;;15.20;99.90;;;;;;4999940;28;20025;-73
2023/07/17 04:26:43;;;;;;;9.70;5.60;;;15.20;99.90;;;;;;5000002;28;20022;-73
2023/07/17 04:29:10;;;;;;;12.70;5.13;;;15.20;99.90;;;;;;5000164;28;20041;-73
2023/07/17 04:31:36;;;;;;;12.65;5.03;;;15.00;99.90;;;;;;4998289;28;20030;-73
2023/07/17 04:34:01;;;;;;;10.00;5.07;;;14.90;99.90;;;;;;4999087;28;20033;-74
2023/07/17 04:36:27;;;;;;;11.02;5.07;;;14.90;99.90;;;;;;4999382;28;20058;-74
2023/07/17 04:38:52;;;;;;;11.32;4.82;;;14.80;99.90;;;;;;5000082;28;20053;-74
2023/07/17 04:41:18;;;;;;;10.82;5.20;;;15.00;99.90;;;;;;4999169;28;20022;-74
2023/07/17 04:43:43;;;;;;;9.23;4.68;;;15.20;99.90;;;;;;4999854;28;20029;-74
2023/07/17 04:46:09;;;;;;;9.27;5.22;;;15.30;99.90;;;;;;5000037;28;20058;-74
2023/07/17 04:48:34;;;;;;;9.40;4.88;;;15.40;99.90;;;;;;4999894;28;20034;-74
2023/07/17 04:51:00;;;;;;;11.05;4.82;;;15.60;99.90;;;;;;4998600;28;20069;-74
2023/07/17 04:53:25;;;;;;;9.95;5.05;;;15.70;99.90;;;;;;4998924;28;20049;-74
2023/07/17 04:55:51;;;;;;;14.45;6.32;;;15.80;99.90;;;;;;4998518;28;20023;-73
2023/07/17 04:58:18;;;;;;;11.55;5.22;;;15.80;99.90;;;;;;4998931;28;20046;-74
2023/07/17 05:00:46;;;;;;;9.02;5.28;;;15.90;99.90;;;;;;4999004;28;20026;-73
2023/07/17 05:03:12;;;;;;;10.10;4.85;;;15.90;99.90;;;;;;4998668;28;20037;-74
2023/07/17 05:05:38;;;;;;;9.95;4.93;;;15.90;99.90;;;;;;4998628;28;20058;-74
2023/07/17 05:08:04;;;;;;;8.55;4.80;;;15.80;99.90;;;;;;4998464;28;20029;-74
2023/07/17 05:10:29;;;;;;;12.05;5.88;;;15.90;99.90;;;;;;4998350;28;20027;-74
2023/07/17 05:12:55;;;;;;;12.40;5.07;;;15.90;99.90;;;;;;4999516;28;20026;-74
2023/07/17 05:15:20;;;;;;;11.02;5.43;;;15.80;99.90;;;;;;4998229;28;20034;-73
2023/07/17 05:17:46;;;;;;;13.10;5.00;;;15.70;99.90;;;;;;4998576;28;20022;-74
2023/07/17 05:20:12;;;;;;;10.80;5.05;;;15.70;99.90;;;;;;4998456;28;20046;-73
2023/07/17 05:22:38;;;;;;;9.15;4.88;;;15.70;99.90;;;;;;4998820;28;20055;-73
2023/07/17 05:25:04;;;;;;;11.35;4.80;;;15.80;99.90;;;;;;4998573;28;20111;-73
2023/07/17 05:27:29;;;;;;;10.70;4.95;;;16.10;99.90;;;;;;4998906;28;20041;-74
2023/07/17 05:29:55;;;;;;;11.02;5.15;;;16.40;99.90;;;;;;4998002;28;20080;-74
2023/07/17 05:32:20;;;;;;;11.30;5.10;;;16.60;99.90;;;;;;4997986;28;20033;-74
2023/07/17 05:34:46;;;;;;;8.65;5.22;;;16.70;99.90;;;;;;4999055;28;20053;-74
2023/07/17 05:37:11;;;;;;;16.30;5.07;;;16.80;99.90;;;;;;4997808;28;20030;-74
2023/07/17 05:39:37;;;;;;;11.30;4.55;;;17.00;99.90;;;;;;4998695;28;20026;-74
2023/07/17 05:42:06;;;;;;;13.70;5.40;;;17.10;99.90;;;;;;4997991;28;20088;-73
2023/07/17 05:44:31;;;;;;;7.60;4.10;;;17.20;99.90;;;;;;4998242;28;20022;-74
2023/07/17 05:46:57;;;;;;;6.65;4.25;;;17.40;99.90;;;;;;4998338;28;20068;-74
2023/07/17 05:49:22;;;;;;;10.75;4.43;;;17.50;99.90;;;;;;4998455;28;20139;-74
2023/07/17 05:51:48;;;;;;;11.95;4.55;;;17.70;99.90;;;;;;4998136;28;20030;-73
2023/07/17 05:54:13;;;;;;;8.25;5.10;;;17.90;99.90;;;;;;4998827;28;20034;-73
2023/07/17 05:56:40;;;;;;;6.78;4.18;;;17.80;99.90;;;;;;4997705;28;20038;-74
2023/07/17 05:59:05;;;;;;;7.57;4.47;;;18.00;99.90;;;;;;4998690;28;20096;-73
2023/07/17 06:01:31;;;;;;;12.73;5.63;;;17.80;99.90;;;;;;4997522;28;20018;-74
2023/07/17 06:03:56;;;;;;;9.77;5.13;;;17.70;99.90;;;;;;4997431;28;20053;-74
2023/07/17 06:06:22;;;;;;;10.68;5.45;;;17.60;99.90;;;;;;4997431;28;20030;-73
2023/07/17 06:08:47;;;;;;;13.90;5.05;;;17.50;99.90;;;;;;4997569;28;20136;-73
2023/07/17 06:11:13;;;;;;;13.32;5.00;;;17.40;99.90;;;;;;4997393;28;20030;-74
2023/07/17 06:13:39;;;;;;;10.60;4.70;;;17.40;99.90;;;;;;4997606;28;20054;-73
2023/07/17 06:16:04;;;;;;;10.85;5.30;;;17.40;99.90;;;;;;4998494;28;20022;-73
2023/07/17 06:18:30;;;;;;;11.30;5.18;;;17.40;99.90;;;;;;4997243;28;20025;-73
2023/07/17 06:20:55;;;;;;;11.73;5.57;;;17.50;99.90;;;;;;4997405;28;20030;-74
2023/07/17 06:23:21;;;;;;;9.85;4.80;;;17.60;99.90;;;;;;4998200;28;20018;-74
2023/07/17 06:25:46;;;;;;;13.52;4.80;;;17.70;99.90;;;;;;4997282;28;20033;-74
2023/07/17 06:28:12;;;;;;;12.32;4.70;;;17.90;99.90;;;;;;4998055;28;20021;-74
2023/07/17 06:30:38;;;;;;;7.72;4.68;;;18.00;99.90;;;;;;4997010;28;20029;-73
2023/07/17 06:33:04;;;;;;;8.85;4.50;;;17.90;99.90;;;;;;4997733;28;20015;-74
2023/07/17 06:35:29;;;;;;;12.48;4.95;;;17.80;99.90;;;;;;4997584;28;20042;-74
2023/07/17 06:37:55;;;;;;;14.32;5.40;;;17.80;99.90;;;;;;4997695;28;20027;-74
2023/07/17 06:40:21;;;;;;;7.75;4.57;;;17.90;99.90;;;;;;4997339;28;20044;-74
2023/07/17 06:42:46;;;;;;;10.63;4.90;;;18.00;99.90;;;;;;4997079;28;20105;-74
2023/07/17 06:45:12;;;;;;;18.10;5.35;;;18.00;99.90;;;;;;4997597;28;20095;-74
2023/07/17 06:47:38;;;;;;;14.50;5.50;;;18.00;99.90;;;;;;4997819;28;20108;-74
2023/07/17 06:50:04;;;;;;;14.30;4.93;;;18.00;99.90;;;;;;4997001;28;20026;-74
2023/07/17 06:52:30;;;;;;;11.70;5.47;;;18.20;99.90;;;;;;4996872;28;20120;-73
2023/07/17 06:54:55;;;;;;;11.93;4.85;;;18.00;99.90;;;;;;4996274;28;20118;-74
2023/07/17 06:57:21;;;;;;;13.63;4.82;;;18.10;99.90;;;;;;4996814;28;20022;-74
2023/07/17 06:59:47;;;;;;;10.95;4.88;;;18.20;99.90;;;;;;4997659;28;20023;-74
2023/07/17 07:02:13;;;;;;;9.05;4.18;;;18.40;99.90;;;;;;4996626;28;20026;-74
2023/07/17 07:04:38;;;;;;;13.00;4.60;;;18.40;99.90;;;;;;4996993;28;20034;-74
2023/07/17 07:07:04;;;;;;;11.13;4.90;;;18.60;99.90;;;;;;4996583;28;20030;-74
2023/07/17 07:09:30;;;;;;;15.48;4.53;;;18.60;99.90;;;;;;4996726;28;20034;-74
2023/07/17 07:11:55;;;;;;;13.32;4.20;;;18.80;99.90;;;;;;4996855;28;20090;-74
2023/07/17 07:14:21;;;;;;;8.93;4.70;;;19.00;99.90;;;;;;4996413;28;20054;-74
2023/07/17 07:16:46;;;;;;;11.90;4.00;;;19.30;99.90;;;;;;4996452;28;20033;-74
2023/07/17 07:19:12;;;;;;;13.30;4.78;;;19.30;99.90;;;;;;4996521;28;20038;-74
2023/07/17 07:21:37;;;;;;;11.35;3.30;;;19.30;99.90;;;;;;4997776;28;20118;-74
2023/07/17 07:24:03;;;;;;;7.90;2.95;;;19.30;99.90;;;;;;4997522;28;20018;-74
2023/07/17 07:26:31;;;;;;;11.23;3.65;;;19.50;99.90;;;;;;4997771;28;20073;-74
2023/07/17 07:28:57;;;;;;;8.07;3.95;;;19.50;99.90;;;;;;4996539;28;20027;-74
2023/07/17 07:31:22;;;;;;;5.78;3.08;;;19.60;99.90;;;;;;4996251;28;20026;-74
2023/07/17 07:33:48;;;;;;;15.10;4.20;;;19.70;99.90;;;;;;4997179;28;20086;-74
2023/07/17 07:36:13;;;;;;;9.68;4.32;;;19.80;99.90;;;;;;4997462;28;20038;-74
2023/07/17 07:38:39;;;;;;;8.43;3.55;;;19.80;99.90;;;;;;4997420;28;20038;-74
2023/07/17 07:41:05;;;;;;;7.28;4.05;;;19.80;99.90;;;;;;4996260;28;20034;-74
2023/07/17 07:43:30;;;;;;;5.55;2.92;;;19.80;99.90;;;;;;4996801;28;20022;-74
2023/07/17 07:45:56;;;;;;;6.40;2.80;;;20.20;99.90;;;;;;4997180;28;20026;-74
2023/07/17 07:48:22;;;;;;;6.70;3.15;;;20.40;99.90;;;;;;4997029;28;20027;-74
2023/07/17 07:50:47;;;;;;;10.65;2.88;;;20.60;99.90;;;;;;4997065;28;20026;-74
2023/07/17 07:53:13;;;;;;;6.20;3.05;;;20.80;99.90;;;;;;4996074;28;20022;-74
2023/07/17 07:55:38;;;;;;;8.23;2.58;;;21.00;99.90;;;;;;4997196;28;20034;-74
2023/07/17 07:58:04;;;;;;;13.30;3.55;;;21.10;99.90;;;;;;4996072;28;20038;-74
2023/07/17 08:00:30;;;;;;;7.97;2.88;;;21.20;99.90;;;;;;4996072;28;20065;-74
2023/07/17 08:02:56;;;;;;;6.60;3.17;;;21.20;99.90;;;;;;4996134;28;20018;-74
2023/07/17 08:05:22;;;;;;;9.48;2.80;;;21.30;99.90;;;;;;4996875;28;20105;-74
2023/07/17 08:07:48;;;;;;;5.18;2.65;;;21.40;99.90;;;;;;4999921;28;20029;-74
2023/07/17 08:10:13;;;;;;;8.90;3.20;;;21.50;99.90;;;;;;5000467;28;20034;-69
2023/07/17 08:12:39;;;;;;;6.82;2.53;;;21.60;99.90;;;;;;5000400;28;20074;-70
2023/07/17 08:15:07;;;;;;;8.57;3.33;;;21.60;99.90;;;;;;4999676;28;20041;-70
2023/07/17 08:17:36;;;;;;;6.63;3.20;;;21.60;99.90;;;;;;5000476;28;20018;-70
2023/07/17 08:20:03;;;;;;;5.05;2.80;;;21.70;99.90;;;;;;4999370;28;20026;-70
2023/07/17 08:22:29;;;;;;;5.05;2.90;;;22.00;99.90;;;;;;4999422;28;20026;-70
2023/07/17 08:24:54;;;;;;;5.38;2.45;;;22.10;99.90;;;;;;5000714;28;20022;-71
2023/07/17 08:27:20;;;;;;;8.30;2.38;;;22.10;99.90;;;;;;5000370;28;20029;-71
2023/07/17 08:29:45;;;;;;;9.38;2.58;;;22.20;99.90;;;;;;5000096;28;20023;-71
2023/07/17 08:32:11;;;;;;;7.05;2.80;;;22.30;99.90;;;;;;4999179;28;20036;-70
2023/07/17 08:34:37;;;;;;;5.60;2.70;;;22.30;99.90;;;;;;4999069;28;20030;-71
2023/07/17 08:37:02;;;;;;;6.20;2.50;;;22.30;99.90;;;;;;4999818;28;20053;-69
2023/07/17 08:39:28;;;;;;;6.53;2.65;;;22.40;99.90;;;;;;4999214;28;20117;-69
2023/07/17 08:41:53;;;;;;;4.93;2.42;;;22.50;99.90;;;;;;4999288;28;20015;-70
2023/07/17 08:44:19;;;;;;;5.93;2.20;;;22.50;99.90;;;;;;4999262;28;20050;-70
2023/07/17 08:46:47;;;;;;;8.05;2.47;;;22.50;99.90;;;;;;5000100;28;20034;-71
2023/07/17 08:49:16;;;;;;;10.02;2.35;;;22.50;99.90;;;;;;4999613;28;20031;-71
2023/07/17 08:51:42;;;;;;;8.40;2.53;;;22.60;99.90;;;;;;4999591;28;20061;-70
2023/07/17 08:54:10;;;;;;;5.15;2.55;;;22.80;99.90;;;;;;4999800;28;20022;-71
2023/07/17 08:56:35;;;;;;;4.80;2.15;;;22.80;99.90;;;;;;4999081;28;20237;-71
2023/07/17 08:59:02;;;;;;;6.85;2.13;;;22.80;99.90;;;;;;4999033;28;20146;-72
2023/07/17 09:01:28;;;;;;;7.25;2.35;;;23.00;99.90;;;;;;4999566;28;20023;-71
2023/07/17 09:03:54;;;;;;;9.07;2.22;;;23.20;99.90;;;;;;4998558;28;20025;-71
2023/07/17 09:06:25;;;;;;;5.00;2.30;;;23.30;99.90;;;;;;4998537;28;20029;-71
2023/07/17 09:08:51;;;;;;;5.95;2.60;;;23.30;99.90;;;;;;4999776;28;20066;-69
2023/07/17 09:11:19;;;;;;;10.88;2.58;;;23.30;99.90;;;;;;4998740;28;20022;-70
2023/07/17 09:13:46;;;;;;;5.82;2.70;;;23.40;99.90;;;;;;4999306;28;20053;-69
2023/07/17 09:16:24;;;;;;;5.88;2.10;;;23.40;99.90;;;;;;4998218;28;20022;-69
2023/07/17 09:18:52;;;;;;;4.68;2.28;;;23.30;99.90;;;;;;4999215;28;20166;-68
2023/07/17 09:21:23;;;;;;;6.00;2.60;;;23.40;99.90;;;;;;4999131;28;20088;-69
2023/07/17 09:23:54;;;;;;;4.60;2.40;;;23.30;99.90;;;;;;4998194;28;20026;-69
2023/07/17 09:26:22;;;;;;;5.13;2.72;;;23.50;99.90;;;;;;4998350;28;20073;-69
2023/07/17 09:28:52;;;;;;;5.07;2.28;;;23.70;99.90;;;;;;4998177;28;20054;-69
2023/07/17 09:31:28;;;;;;;4.47;2.50;;;23.90;99.90;;;;;;4999323;28;20029;-69
2023/07/17 09:34:04;;;;;;;6.07;2.33;;;24.00;99.90;;;;;;4997986;28;20034;-69
2023/07/17 09:36:30;;;;;;;5.20;2.38;;;24.10;99.90;;;;;;4997893;28;20026;-69
2023/07/17 09:38:57;;;;;;;7.57;3.17;;;24.20;99.90;;;;;;4998794;28;20030;-69
2023/07/17 09:41:28;;;;;;;3.10;2.03;;;24.10;99.90;;;;;;4998093;28;20114;-69
2023/07/17 09:44:04;;;;;;;7.18;2.35;;;24.00;99.90;;;;;;4997818;28;20050;-69
2023/07/17 09:46:34;;;;;;;7.32;2.67;;;24.10;99.90;;;;;;4998169;28;20034;-68
2023/07/17 09:49:01;;;;;;;6.50;2.20;;;24.20;99.90;;;;;;4999181;28;20121;-68
2023/07/17 09:51:28;;;;;;;5.47;2.78;;;24.30;99.90;;;;;;4997663;28;20276;-69
2023/07/17 09:53:55;;;;;;;4.97;2.00;;;24.30;99.90;;;;;;4998555;28;20033;-69
2023/07/17 09:56:21;;;;;;;4.57;1.98;;;24.50;99.90;;;;;;4998349;28;20141;-69
2023/07/17 09:58:50;;;;;;;4.07;1.92;;;24.60;99.90;;;;;;4998431;28;20018;-69
2023/07/17 10:01:22;;;;;;;3.22;1.98;;;24.60;99.90;;;;;;4997573;28;20026;-69
2023/07/17 10:03:49;;;;;;;4.78;2.33;;;24.40;99.90;;;;;;4998223;28;20018;-68
2023/07/17 10:06:17;;;;;;;6.72;2.50;;;24.00;99.90;;;;;;4998373;28;20034;-68
2023/07/17 10:08:49;;;;;;;3.33;1.85;;;24.00;99.90;;;;;;4998195;28;20053;-69
2023/07/17 10:11:18;;;;;;;6.50;2.50;;;24.10;99.90;;;;;;4997792;28;20042;-68
2023/07/17 10:13:45;;;;;;;7.13;2.53;;;24.20;99.90;;;;;;4997579;28;20033;-69
2023/07/17 10:16:13;;;;;;;4.63;1.85;;;24.20;99.90;;;;;;4997061;28;20026;-69
2023/07/17 10:18:50;;;;;;;4.65;2.08;;;24.30;99.90;;;;;;4997221;28;20053;-69
2023/07/17 10:21:19;;;;;;;7.15;2.10;;;24.40;99.40;;;;;;4998285;28;20045;-69
2023/07/17 10:23:47;;;;;;;5.90;2.33;;;24.50;99.40;;;;;;4998096;28;20128;-68
2023/07/17 10:26:16;;;;;;;5.47;2.03;;;24.70;98.10;;;;;;4997768;28;20066;-69
2023/07/17 10:28:44;;;;;;;4.97;1.60;;;24.80;97.70;;;;;;4997458;28;20034;-69
2023/07/17 10:31:17;;;;;;;7.38;2.60;;;25.00;97.90;;;;;;4996869;28;20026;-68
2023/07/17 10:33:49;;;;;;;7.53;2.17;;;25.30;96.80;;;;;;4997013;28;20026;-69
2023/07/17 10:36:15;;;;;;;2.88;1.77;;;25.40;96.00;;;;;;4997930;28;20105;-69
2023/07/17 10:38:42;;;;;;;3.40;1.85;;;25.30;95.40;;;;;;4997212;28;20050;-69
2023/07/17 10:41:13;;;;;;;7.95;2.35;;;25.40;95.60;;;;;;4997718;28;20111;-69
2023/07/17 10:43:55;;;;;;;4.72;1.95;;;25.50;94.50;;;;;;4996875;28;20022;-69
2023/07/17 10:46:29;;;;;;;6.25;1.95;;;25.20;94.70;;;;;;4996982;28;20173;-70
2023/07/17 10:49:05;;;;;;;7.47;2.22;;;25.10;94.90;;;;;;4997976;28;20109;-69
2023/07/17 10:51:30;;;;;;;4.85;1.88;;;25.20;94.00;;;;;;4997637;28;20030;-69
2023/07/17 10:53:56;;;;;;;4.03;2.10;;;25.30;93.60;;;;;;4996627;28;20033;-69
2023/07/17 10:56:22;;;;;;;6.35;2.15;;;25.30;93.40;;;;;;4996540;28;20032;-69
2023/07/17 10:58:49;;;;;;;5.20;2.40;;;25.10;93.40;;;;;;4996693;28;20026;-69
2023/07/17 11:01:15;;;;;;;6.80;2.28;;;25.10;94.00;;;;;;4997433;28;20030;-69
2023/07/17 11:03:47;;;;;;;6.47;2.45;;;25.20;93.40;;;;;;4997502;28;20027;-68
2023/07/17 11:06:14;;;;;;;5.63;2.85;;;25.30;93.80;;;;;;4997483;28;20070;-69
2023/07/17 11:08:41;;;;;;;9.70;3.15;;;25.40;93.00;;;;;;4996641;28;20041;-69
2023/07/17 11:11:08;;;;;;;6.75;3.30;;;25.70;93.50;;;;;;4996373;28;20038;-69
2023/07/17 11:13:34;;;;;;;6.38;2.35;;;26.30;92.70;;;;;;4996465;28;20031;-69
2023/07/17 11:16:10;;;;;;;4.30;2.00;;;26.80;92.50;;;;;;4997280;28;20049;-70
2023/07/17 11:18:50;;;;;;;6.97;2.17;;;28.10;90.20;;;;;;4997759;28;20019;-69
2023/07/17 11:21:18;;;;;;;5.75;2.22;;;28.70;84.90;;;;;;4997399;28;20022;-69
2023/07/17 11:23:54;;;;;;;8.23;2.45;;;28.50;83.70;;;;;;4996586;28;20054;-70
2023/07/17 11:26:28;;;;;;;5.15;2.72;;;28.40;84.10;;;;;;4997319;28;20113;-70
2023/07/17 11:28:56;;;;;;;6.90;2.25;;;28.60;83.40;;;;;;4996766;28;20033;-69
2023/07/17 11:31:33;;;;;;;5.55;2.50;;;28.40;81.00;;;;;;4996384;28;20033;-69
2023/07/17 11:34:03;;;;;;;6.82;2.28;;;27.80;82.40;;;;;;4997839;28;20022;-69
2023/07/17 11:36:43;;;;;;;5.57;2.40;;;27.30;81.50;;;;;;4997383;28;20034;-69
2023/07/17 11:39:17;;;;;;;6.30;2.00;;;26.80;83.80;;;;;;4997182;28;20026;-69
2023/07/17 11:41:47;;;;;;;3.95;2.13;;;26.50;83.80;;;;;;4998411;28;20030;-69
2023/07/17 11:44:15;;;;;;;4.63;1.90;;;26.00;84.70;;;;;;5000211;28;20049;-69
2023/07/17 11:46:41;;;;;;;6.47;2.17;;;26.00;86.20;;;;;;5001034;28;20026;-69
2023/07/17 11:49:06;;;;;;;4.30;2.38;;;25.90;87.10;;;;;;5000866;28;20019;-69
2023/07/17 11:51:32;;;;;;;5.05;2.08;;;25.70;87.30;;;;;;5000807;28;20034;-69
2023/07/17 11:53:58;;;;;;;4.65;2.22;;;25.60;88.10;;;;;;5000284;28;20022;-69
2023/07/17 11:56:37;;;;;;;7.68;2.20;;;25.70;88.20;;;;;;4999990;28;20117;-69
2023/07/17 11:59:04;;;;;;;7.57;2.00;;;26.20;86.90;;;;;;5000799;28;20050;-69
2023/07/17 12:01:29;;;;;;;3.88;2.20;;;26.50;88.30;;;;;;5000012;28;20022;-69
2023/07/17 12:03:55;;;;;;;5.85;2.35;;;27.40;86.60;;;;;;5000510;28;20102;-69
2023/07/17 12:06:21;;;;;;;5.88;2.38;;;28.10;80.40;;;;;;5000078;28;20038;-69
2023/07/17 12:08:46;;;;;;;11.05;2.70;;;28.30;79.00;;;;;;5000667;28;20026;-69
2023/07/17 12:11:13;;;;;;;6.53;2.90;;;28.40;79.20;;;;;;5000754;28;20033;-69
2023/07/17 12:13:38;;;;;;;3.83;2.13;;;28.60;78.40;;;;;;4999900;28;20030;-69
2023/07/17 12:16:04;;;;;;;4.47;1.77;;;28.30;78.20;;;;;;4999719;28;20033;-70
2023/07/17 12:18:30;;;;;;;3.35;1.75;;;28.60;78.00;;;;;;4999947;28;20030;-69
2023/07/17 12:20:56;;;;;;;5.65;2.10;;;29.20;76.00;;;;;;4999547;28;20108;-69
2023/07/17 12:23:23;;;;;;;3.88;2.20;;;29.00;74.40;;;;;;5000704;28;20031;-69
2023/07/17 12:25:49;;;;;;;6.63;2.33;;;28.80;75.60;;;;;;4999306;28;20027;-69
2023/07/17 12:28:15;;;;;;;4.78;2.22;;;28.70;74.80;;;;;;4999303;28;20104;-69
2023/07/17 12:30:41;;;;;;;3.90;2.40;;;28.90;74.30;;;;;;4999203;28;20058;-69
2023/07/17 12:33:07;;;;;;;6.07;2.20;;;29.00;73.20;;;;;;4999454;28;20097;-69
2023/07/17 12:35:32;;;;;;;3.58;1.90;;;28.80;73.50;;;;;;5000013;28;20030;-69
2023/07/17 12:37:58;;;;;;;2.53;2.10;;;29.00;72.90;;;;;;4999197;28;20053;-69
2023/07/17 12:40:24;;;;;;;2.92;2.10;;;29.10;70.90;;;;;;4999112;28;20049;-69